Flight Briefing for CPX332

Departure Arrival
Austin-Bergstrom International Airport (KAUS)
Click to view FAA NOTAMS
Valley International Airport (KHRL)
Click to view FAA NOTAMS
Departure Time Arrival Time
N/A N/A
Aircraft Distance
B767-300BDSF 273nm
Departure METAR Arrival METAR
KAUS 260853Z 05004KT 10SM FEW250 14/09 A3024 RMK AO2 SLP233 T01390089 51005 $ KHRL 260948Z AUTO 00000KT 1 3/4SM BR CLR 19/19 A3010 RMK AO2
Suggested Route
PCKIT CRP


View recent IFR Routes data
Notes



Charts and Procedures

Charts for KAUS
No chart available
Charts for KHRL
No chart available

Windy.com Weather Map